Time;durP1;ratioP1;P1;durP2;ratioP2;P2;SDS_P1;SDS_P2;PMS_P1;PMS_P2;Temp;Humidity;BMP_temperature;BMP_pressure;BME280_temperature;BME280_humidity;BME280_pressure;Samples;Min_cycle;Max_cycle;Signal;HPM_P1;HPM_P2
2022/03/24 00:02:02;;;;;;;39.92;20.52;;;;;;;;;;4994053;28;20390;-76
2022/03/24 00:04:28;;;;;;;37.60;20.80;;;;;;;;;;5009205;28;20117;-79
2022/03/24 00:06:53;;;;;;;34.13;19.80;;;;;;;;;;4994178;28;20394;-77
2022/03/24 00:09:18;;;;;;;35.72;19.75;;;;;;;;;;4994247;28;20108;-77
2022/03/24 00:11:43;;;;;;;40.03;20.42;;;;;;;;;;4999073;28;20023;-78
2022/03/24 00:14:08;;;;;;;38.25;20.25;;;;;;;;;;5001731;28;20029;-77
2022/03/24 00:16:34;;;;;;;38.22;20.63;;;;;;;;;;5011890;28;20023;-78
2022/03/24 00:18:59;;;;;;;36.70;20.08;;;;;;;;;;5010697;28;20517;-80
2022/03/24 00:21:24;;;;;;;36.50;19.42;;;;;;;;;;5007783;28;20470;-78
2022/03/24 00:23:50;;;;;;;37.15;18.98;;;;;;;;;;5025749;28;20029;-77
2022/03/24 00:26:15;;;;;;;37.55;19.95;;;;;;;;;;5029104;28;20114;-77
2022/03/24 00:28:40;;;;;;;39.25;19.75;;;;;;;;;;5027802;28;20018;-80
2022/03/24 00:31:05;;;;;;;33.03;18.52;;;;;;;;;;5026928;28;20021;-80
2022/03/24 00:33:32;;;;;;;32.97;19.20;;;;;;;;;;5020996;28;20022;-80
2022/03/24 00:35:57;;;;;;;32.05;18.80;;;;;;;;;;5020911;28;20017;-80
2022/03/24 00:38:22;;;;;;;34.72;19.63;;;;;;;;;;5016368;28;20010;-79
2022/03/24 00:40:48;;;;;;;33.55;19.27;;;;;;;;;;5018804;28;20045;-78
2022/03/24 00:43:13;;;;;;;31.60;18.27;;;;;;;;;;5007315;28;20081;-77
2022/03/24 00:45:41;;;;;;;34.33;18.55;;;;;;;;;;5023033;28;20375;-77
2022/03/24 00:48:07;;;;;;;34.87;18.30;;;;;;;;;;5023209;28;20430;-78
2022/03/24 00:50:32;;;;;;;31.33;18.98;;;;;;;;;;5023284;28;20049;-79
2022/03/24 00:52:58;;;;;;;32.60;18.00;;;;;;;;;;5022881;28;20018;-76
2022/03/24 00:55:23;;;;;;;27.92;17.52;;;;;;;;;;5021434;28;20560;-80
2022/03/24 00:57:49;;;;;;;32.70;17.88;;;;;;;;;;5019204;28;20048;-79
2022/03/24 01:00:16;;;;;;;33.38;18.33;;;;;;;;;;5013376;28;20018;-77
2022/03/24 01:02:41;;;;;;;33.67;18.08;;;;;;;;;;5012632;28;20477;-77
2022/03/24 01:05:07;;;;;;;30.90;17.42;;;;;;;;;;5012847;28;20032;-78
2022/03/24 01:07:32;;;;;;;30.42;18.00;;;;;;;;;;5024280;23;20046;-78
2022/03/24 01:09:57;;;;;;;33.70;17.48;;;;;;;;;;5028132;28;20026;-80
2022/03/24 01:12:23;;;;;;;33.25;18.02;;;;;;;;;;5011360;28;20116;-80
2022/03/24 01:14:48;;;;;;;32.40;17.55;;;;;;;;;;5012620;28;20022;-81
2022/03/24 01:17:16;;;;;;;34.00;17.75;;;;;;;;;;5011227;28;20025;-82
2022/03/24 01:19:41;;;;;;;31.95;16.95;;;;;;;;;;5011368;28;20160;-79
2022/03/24 01:22:06;;;;;;;34.85;17.80;;;;;;;;;;5008593;28;20093;-80
2022/03/24 01:24:31;;;;;;;35.63;17.45;;;;;;;;;;4991613;28;20030;-82
2022/03/24 01:26:56;;;;;;;29.90;16.67;;;;;;;;;;4996180;28;20129;-79
2022/03/24 01:29:22;;;;;;;28.13;16.60;;;;;;;;;;5007523;28;20041;-83
2022/03/24 01:31:47;;;;;;;32.33;17.65;;;;;;;;;;5011176;28;20021;-81
2022/03/24 01:34:13;;;;;;;29.50;17.63;;;;;;;;;;4998715;28;20093;-80
2022/03/24 01:36:39;;;;;;;28.98;17.30;;;;;;;;;;5005242;28;20040;-80
2022/03/24 01:39:04;;;;;;;30.38;18.23;;;;;;;;;;5012531;28;20106;-80
2022/03/24 01:41:29;;;;;;;30.92;17.27;;;;;;;;;;5012323;28;20032;-80
2022/03/24 01:43:54;;;;;;;29.13;16.48;;;;;;;;;;5027185;28;20032;-79
2022/03/24 01:46:20;;;;;;;33.63;16.92;;;;;;;;;;5000059;28;20096;-81
2022/03/24 01:48:45;;;;;;;35.00;17.33;;;;;;;;;;4991348;28;20018;-80
2022/03/24 01:51:11;;;;;;;31.48;17.92;;;;;;;;;;4997722;28;20045;-78
2022/03/24 01:53:36;;;;;;;31.73;18.42;;;;;;;;;;4991418;28;20053;-78
2022/03/24 01:56:03;;;;;;;33.50;18.32;;;;;;;;;;4992736;28;20030;-81
2022/03/24 01:58:29;;;;;;;33.47;18.35;;;;;;;;;;4992831;28;20018;-79
2022/03/24 02:01:00;;;;;;;32.22;17.45;;;;;;;;;;4992888;28;20489;-79
2022/03/24 02:03:26;;;;;;;34.33;18.65;;;;;;;;;;4992867;28;20019;-82
2022/03/24 02:05:51;;;;;;;31.40;17.48;;;;;;;;;;4992332;28;20022;-83
2022/03/24 02:08:16;;;;;;;30.98;17.90;;;;;;;;;;4995571;28;20117;-83
2022/03/24 02:10:41;;;;;;;26.48;16.40;;;;;;;;;;4998364;28;20042;-82
2022/03/24 02:13:08;;;;;;;32.80;17.92;;;;;;;;;;4997642;28;20118;-79
2022/03/24 02:15:34;;;;;;;32.25;17.95;;;;;;;;;;4996430;28;20018;-81
2022/03/24 02:18:00;;;;;;;33.33;17.48;;;;;;;;;;4999546;28;20045;-81
2022/03/24 02:20:28;;;;;;;31.30;17.67;;;;;;;;;;4999355;28;20076;-80
2022/03/24 02:22:55;;;;;;;31.30;16.67;;;;;;;;;;4998339;28;20018;-80
2022/03/24 02:25:23;;;;;;;34.13;17.48;;;;;;;;;;5001943;28;20286;-80
2022/03/24 02:27:52;;;;;;;28.35;16.55;;;;;;;;;;5015985;28;20018;-80
2022/03/24 02:30:17;;;;;;;33.28;17.25;;;;;;;;;;5018122;28;20044;-80
2022/03/24 02:32:43;;;;;;;36.20;18.52;;;;;;;;;;5018008;28;20396;-79
2022/03/24 02:35:09;;;;;;;30.65;16.85;;;;;;;;;;5019097;28;20018;-81
2022/03/24 02:37:34;;;;;;;34.72;17.88;;;;;;;;;;5019540;28;20029;-82
2022/03/24 02:39:59;;;;;;;34.85;17.85;;;;;;;;;;5026975;28;20026;-83
2022/03/24 02:42:26;;;;;;;32.72;17.05;;;;;;;;;;5020957;28;20029;-80
2022/03/24 02:44:52;;;;;;;31.15;16.95;;;;;;;;;;5019832;28;20025;-83
2022/03/24 02:47:18;;;;;;;35.95;18.42;;;;;;;;;;5023534;28;20022;-80
2022/03/24 02:49:45;;;;;;;33.60;17.20;;;;;;;;;;5025376;28;20024;-81
2022/03/24 02:52:11;;;;;;;35.10;18.23;;;;;;;;;;5024640;28;20018;-82
2022/03/24 02:54:36;;;;;;;33.20;17.42;;;;;;;;;;5025605;28;20509;-80
2022/03/24 02:57:02;;;;;;;32.53;17.70;;;;;;;;;;5024956;28;20076;-82
2022/03/24 02:59:27;;;;;;;30.52;16.60;;;;;;;;;;5025253;28;20024;-81
2022/03/24 03:02:06;;;;;;;32.63;17.58;;;;;;;;;;5025339;28;20042;-83
2022/03/24 03:04:34;;;;;;;31.23;16.85;;;;;;;;;;5024774;28;20022;-81
2022/03/24 03:07:02;;;;;;;32.25;17.25;;;;;;;;;;5025092;28;20079;-82
2022/03/24 03:09:27;;;;;;;32.75;17.80;;;;;;;;;;5025279;28;20064;-80
2022/03/24 03:11:52;;;;;;;31.10;17.58;;;;;;;;;;5023613;28;20461;-83
2022/03/24 03:14:18;;;;;;;34.50;17.63;;;;;;;;;;5022162;28;20500;-78
2022/03/24 03:16:44;;;;;;;30.70;17.08;;;;;;;;;;5020192;28;20053;-81
2022/03/24 03:19:10;;;;;;;32.83;17.48;;;;;;;;;;5020380;28;20029;-81
2022/03/24 03:21:36;;;;;;;37.60;18.08;;;;;;;;;;5017588;28;20101;-81
2022/03/24 03:24:02;;;;;;;28.58;16.80;;;;;;;;;;5000640;28;20034;-81
2022/03/24 03:26:27;;;;;;;34.83;17.17;;;;;;;;;;5000850;28;20029;-81
2022/03/24 03:28:53;;;;;;;31.58;17.17;;;;;;;;;;5000258;28;20022;-81
2022/03/24 03:31:21;;;;;;;35.38;18.25;;;;;;;;;;5002253;28;20042;-80
2022/03/24 03:33:46;;;;;;;32.17;17.77;;;;;;;;;;5002277;28;20033;-83
2022/03/24 03:36:12;;;;;;;31.13;17.90;;;;;;;;;;5002024;28;20065;-79
2022/03/24 03:38:37;;;;;;;33.22;17.65;;;;;;;;;;4999936;28;20022;-80
2022/03/24 03:41:02;;;;;;;32.92;18.25;;;;;;;;;;5001179;28;20014;-80
2022/03/24 03:43:28;;;;;;;33.28;17.52;;;;;;;;;;5019965;28;20021;-80
2022/03/24 03:45:53;;;;;;;34.90;18.75;;;;;;;;;;5020118;28;20049;-81
2022/03/24 03:48:18;;;;;;;34.47;18.45;;;;;;;;;;5019576;28;20084;-80
2022/03/24 03:50:44;;;;;;;33.85;17.77;;;;;;;;;;5019093;28;20029;-78
2022/03/24 03:53:10;;;;;;;34.50;17.42;;;;;;;;;;5021111;28;20014;-79
2022/03/24 03:55:38;;;;;;;33.58;18.13;;;;;;;;;;5024805;28;20477;-82
2022/03/24 03:58:06;;;;;;;37.17;17.70;;;;;;;;;;5024454;28;20047;-82
2022/03/24 04:00:52;;;;;;;34.63;19.45;;;;;;;;;;5033023;28;20029;-81
2022/03/24 04:03:18;;;;;;;38.78;19.55;;;;;;;;;;5034027;28;20100;-84
2022/03/24 04:05:43;;;;;;;36.35;18.70;;;;;;;;;;5027323;28;20026;-83
2022/03/24 04:08:10;;;;;;;37.83;19.40;;;;;;;;;;5025174;28;20116;-84
2022/03/24 04:10:36;;;;;;;31.13;17.27;;;;;;;;;;5023463;28;20040;-84
2022/03/24 04:13:02;;;;;;;37.85;18.42;;;;;;;;;;5022644;28;20022;-84
2022/03/24 04:15:28;;;;;;;36.72;18.45;;;;;;;;;;5023648;28;20049;-82
2022/03/24 04:17:53;;;;;;;35.83;18.85;;;;;;;;;;5024318;28;20033;-84
2022/03/24 04:20:21;;;;;;;35.88;19.15;;;;;;;;;;5023188;28;20054;-84
2022/03/24 04:22:52;;;;;;;38.65;19.17;;;;;;;;;;5022423;28;20029;-82
2022/03/24 04:25:18;;;;;;;42.25;20.95;;;;;;;;;;5022875;28;20030;-83
2022/03/24 04:27:43;;;;;;;42.00;20.48;;;;;;;;;;5020468;28;20145;-82
2022/03/24 04:30:09;;;;;;;36.63;19.63;;;;;;;;;;5019155;28;20485;-82
2022/03/24 04:32:34;;;;;;;40.83;20.17;;;;;;;;;;5018905;28;20097;-81
2022/03/24 04:35:00;;;;;;;33.28;18.67;;;;;;;;;;5022464;28;20026;-80
2022/03/24 04:37:25;;;;;;;44.42;19.38;;;;;;;;;;5018278;28;20030;-79
2022/03/24 04:39:51;;;;;;;36.35;19.15;;;;;;;;;;5018024;28;20025;-79
2022/03/24 04:42:16;;;;;;;34.17;19.10;;;;;;;;;;5017677;28;20432;-80
2022/03/24 04:44:41;;;;;;;37.85;19.50;;;;;;;;;;5017591;28;20544;-80
2022/03/24 04:47:07;;;;;;;46.45;19.33;;;;;;;;;;5017966;28;20101;-80
2022/03/24 04:49:32;;;;;;;34.65;19.48;;;;;;;;;;5019637;28;20026;-80
2022/03/24 04:51:58;;;;;;;48.47;19.80;;;;;;;;;;5018815;28;20021;-81
2022/03/24 04:54:23;;;;;;;33.47;18.77;;;;;;;;;;5017613;28;20022;-80
2022/03/24 04:56:48;;;;;;;42.35;19.27;;;;;;;;;;5016423;28;20098;-80
2022/03/24 04:59:15;;;;;;;36.80;18.65;;;;;;;;;;5016245;28;20385;-80
2022/03/24 05:01:40;;;;;;;41.00;18.85;;;;;;;;;;5014965;28;20516;-79
2022/03/24 05:04:05;;;;;;;41.03;19.08;;;;;;;;;;5013344;28;20026;-79
2022/03/24 05:06:31;;;;;;;54.75;21.45;;;;;;;;;;5014024;28;20496;-79
2022/03/24 05:08:57;;;;;;;39.75;18.83;;;;;;;;;;5014022;28;20112;-79
2022/03/24 05:11:22;;;;;;;37.38;18.92;;;;;;;;;;5013431;28;20053;-79
2022/03/24 05:13:47;;;;;;;35.63;18.95;;;;;;;;;;5012338;28;20021;-78
2022/03/24 05:16:13;;;;;;;35.80;18.88;;;;;;;;;;5012168;28;20022;-78
2022/03/24 05:18:38;;;;;;;47.88;19.67;;;;;;;;;;5013904;28;20429;-78
2022/03/24 05:21:04;;;;;;;41.35;20.00;;;;;;;;;;5012548;28;20101;-79
2022/03/24 05:23:30;;;;;;;33.05;18.65;;;;;;;;;;4993895;28;20408;-81
2022/03/24 05:25:56;;;;;;;36.33;19.52;;;;;;;;;;4993390;28;20555;-78
2022/03/24 05:28:21;;;;;;;46.90;19.15;;;;;;;;;;4991801;28;20030;-79
2022/03/24 05:30:47;;;;;;;43.34;20.02;;;;;;;;;;4991806;28;20025;-78
2022/03/24 05:33:13;;;;;;;40.30;19.17;;;;;;;;;;4992662;28;20029;-78
2022/03/24 05:35:38;;;;;;;44.38;20.15;;;;;;;;;;4994164;28;20029;-80
2022/03/24 05:38:04;;;;;;;43.42;19.58;;;;;;;;;;4991483;28;20107;-81
2022/03/24 05:40:30;;;;;;;41.10;20.08;;;;;;;;;;4993083;28;20029;-79
2022/03/24 05:42:55;;;;;;;38.90;18.90;;;;;;;;;;4992483;28;20026;-80
2022/03/24 05:45:20;;;;;;;45.42;20.25;;;;;;;;;;5008028;28;20109;-78
2022/03/24 05:47:48;;;;;;;49.83;20.85;;;;;;;;;;5011165;28;20469;-80
2022/03/24 05:50:13;;;;;;;46.25;21.20;;;;;;;;;;5012534;28;20014;-80
2022/03/24 05:52:39;;;;;;;48.90;21.17;;;;;;;;;;5012350;28;20416;-80
2022/03/24 05:55:04;;;;;;;42.65;20.27;;;;;;;;;;5012715;28;20066;-80
2022/03/24 05:57:29;;;;;;;38.78;18.92;;;;;;;;;;5012484;28;20501;-81
2022/03/24 05:59:55;;;;;;;37.33;19.05;;;;;;;;;;5014024;28;20018;-80
2022/03/24 06:02:20;;;;;;;42.28;20.00;;;;;;;;;;5012514;28;20021;-78
2022/03/24 06:04:46;;;;;;;38.67;19.63;;;;;;;;;;5012516;28;20393;-80
2022/03/24 06:07:14;;;;;;;39.60;19.45;;;;;;;;;;5027324;28;20026;-80
2022/03/24 06:09:39;;;;;;;37.22;20.88;;;;;;;;;;5012822;28;20025;-81
2022/03/24 06:12:08;;;;;;;40.80;21.13;;;;;;;;;;5014416;28;20018;-81
2022/03/24 06:14:34;;;;;;;;;;;;;;;;;;5014830;28;20076;-81
2022/03/24 06:16:59;;;;;;;34.75;17.92;;;;;;;;;;5014831;28;19905;-79
2022/03/24 06:19:24;;;;;;;41.13;20.85;;;;;;;;;;5013037;28;20491;-78
2022/03/24 06:21:50;;;;;;;45.90;20.27;;;;;;;;;;5015265;28;20083;-78
2022/03/24 06:24:15;;;;;;;37.33;19.40;;;;;;;;;;5016041;28;20022;-78
2022/03/24 06:26:40;;;;;;;40.28;20.00;;;;;;;;;;5014903;28;20026;-80
2022/03/24 06:29:06;;;;;;;38.38;19.65;;;;;;;;;;5016412;28;20488;-90
2022/03/24 06:31:31;;;;;;;41.40;20.08;;;;;;;;;;5014458;28;20022;-77
2022/03/24 06:33:57;;;;;;;40.72;19.55;;;;;;;;;;5015420;28;20474;-76
2022/03/24 06:36:22;;;;;;;41.97;20.63;;;;;;;;;;5015352;28;20127;-76
2022/03/24 06:38:47;;;;;;;39.45;20.23;;;;;;;;;;5015478;28;20029;-76
2022/03/24 06:41:14;;;;;;;39.00;20.33;;;;;;;;;;5015467;28;20029;-76
2022/03/24 06:43:39;;;;;;;39.50;21.25;;;;;;;;;;5012790;28;20026;-76
2022/03/24 06:46:07;;;;;;;44.72;20.52;;;;;;;;;;5006332;28;20060;-76
2022/03/24 06:48:33;;;;;;;44.40;21.23;;;;;;;;;;5029010;28;20022;-77
2022/03/24 06:50:58;;;;;;;42.90;21.27;;;;;;;;;;5009617;28;20044;-76
2022/03/24 06:53:23;;;;;;;44.15;21.02;;;;;;;;;;4995711;28;20018;-77
2022/03/24 06:55:49;;;;;;;47.67;22.23;;;;;;;;;;4995813;28;20019;-77
2022/03/24 06:58:14;;;;;;;39.25;20.40;;;;;;;;;;4997146;28;20402;-76
2022/03/24 07:00:39;;;;;;;37.55;20.65;;;;;;;;;;4995406;28;20505;-74
2022/03/24 07:03:05;;;;;;;45.58;21.40;;;;;;;;;;4995713;28;20018;-77
2022/03/24 07:05:30;;;;;;;44.42;20.73;;;;;;;;;;4996438;28;20514;-77
2022/03/24 07:07:55;;;;;;;39.28;19.25;;;;;;;;;;5017295;23;20485;-88
2022/03/24 07:10:21;;;;;;;40.45;20.50;;;;;;;;;;5015629;28;20022;-86
2022/03/24 07:12:48;;;;;;;43.17;21.17;;;;;;;;;;5031406;28;20022;-86
2022/03/24 07:15:13;;;;;;;39.35;21.23;;;;;;;;;;5016296;28;20080;-87
2022/03/24 07:17:39;;;;;;;40.40;21.90;;;;;;;;;;5014219;28;20029;-90
2022/03/24 07:20:05;;;;;;;44.22;20.80;;;;;;;;;;5015446;28;20545;-88
2022/03/24 07:22:30;;;;;;;44.88;21.80;;;;;;;;;;5014916;28;20125;-89
2022/03/24 07:24:56;;;;;;;43.28;21.75;;;;;;;;;;5015362;28;20108;-86
2022/03/24 07:27:21;;;;;;;38.58;21.40;;;;;;;;;;5016155;28;20442;-88
2022/03/24 07:29:46;;;;;;;37.90;20.65;;;;;;;;;;5014878;28;20022;-87
2022/03/24 07:32:12;;;;;;;42.83;21.88;;;;;;;;;;5013860;28;20025;-86
2022/03/24 07:34:37;;;;;;;37.75;20.60;;;;;;;;;;5014631;28;20025;-85
2022/03/24 07:37:04;;;;;;;45.47;21.90;;;;;;;;;;5013165;28;20026;-82
2022/03/24 07:39:29;;;;;;;42.22;21.48;;;;;;;;;;5013157;28;20017;-83
2022/03/24 07:41:54;;;;;;;38.47;22.30;;;;;;;;;;5012929;28;20014;-83
2022/03/24 07:44:20;;;;;;;45.25;22.38;;;;;;;;;;5014205;28;20022;-82
2022/03/24 07:46:45;;;;;;;41.10;22.35;;;;;;;;;;5013136;28;20014;-85
2022/03/24 07:49:10;;;;;;;42.92;22.48;;;;;;;;;;5013413;28;20025;-84
2022/03/24 07:51:35;;;;;;;41.78;21.70;;;;;;;;;;5014283;28;20022;-86
2022/03/24 07:54:04;;;;;;;42.88;22.77;;;;;;;;;;5014074;28;20064;-83
2022/03/24 07:56:30;;;;;;;44.10;22.08;;;;;;;;;;5015136;28;20069;-86
2022/03/24 07:58:56;;;;;;;44.97;22.48;;;;;;;;;;5015097;28;20022;-88
2022/03/24 08:01:32;;;;;;;43.03;21.58;;;;;;;;;;5029699;28;20032;-87
2022/03/24 08:03:58;;;;;;;47.33;22.92;;;;;;;;;;5031241;28;20022;-89
2022/03/24 08:06:24;;;;;;;40.17;21.48;;;;;;;;;;5024501;28;20018;-88
2022/03/24 08:08:49;;;;;;;45.25;23.52;;;;;;;;;;5021882;28;20033;-88
2022/03/24 08:11:14;;;;;;;38.03;20.50;;;;;;;;;;5029044;28;20013;-88
2022/03/24 08:13:40;;;;;;;42.85;21.20;;;;;;;;;;5013792;28;20022;-87
2022/03/24 08:16:06;;;;;;;39.22;19.23;;;;;;;;;;5029411;28;20022;-88
2022/03/24 08:18:31;;;;;;;36.72;19.85;;;;;;;;;;5012793;28;20471;-87
2022/03/24 08:21:00;;;;;;;41.05;20.45;;;;;;;;;;5028960;28;20018;-88
2022/03/24 08:23:25;;;;;;;37.38;19.25;;;;;;;;;;5011426;28;20080;-87
2022/03/24 08:25:51;;;;;;;39.28;20.95;;;;;;;;;;5015217;28;20030;-87
2022/03/24 08:28:16;;;;;;;38.03;20.10;;;;;;;;;;5028696;28;20362;-88
2022/03/24 08:30:44;;;;;;;42.83;21.27;;;;;;;;;;5012349;28;20026;-86
2022/03/24 08:33:10;;;;;;;37.20;20.58;;;;;;;;;;5013486;28;20041;-88
2022/03/24 08:35:35;;;;;;;41.25;21.45;;;;;;;;;;5013502;28;20018;-88
2022/03/24 08:38:01;;;;;;;39.78;19.75;;;;;;;;;;5029290;28;20030;-87
2022/03/24 08:40:26;;;;;;;38.53;19.63;;;;;;;;;;5024109;28;20028;-88
2022/03/24 08:42:51;;;;;;;40.50;21.48;;;;;;;;;;5012079;28;20022;-85
2022/03/24 08:45:16;;;;;;;40.00;21.60;;;;;;;;;;5013428;28;20537;-88
2022/03/24 08:47:42;;;;;;;39.67;23.27;;;;;;;;;;5013812;28;20067;-85
2022/03/24 08:50:07;;;;;;;39.92;21.13;;;;;;;;;;5013870;28;20101;-86
2022/03/24 08:52:33;;;;;;;44.97;23.00;;;;;;;;;;5028769;28;20022;-88
2022/03/24 08:54:58;;;;;;;45.53;21.45;;;;;;;;;;5028314;28;20473;-88
2022/03/24 08:57:27;;;;;;;45.03;23.17;;;;;;;;;;5011542;28;20022;-87
2022/03/24 08:59:56;;;;;;;47.78;26.38;;;;;;;;;;5022953;28;20393;-87
2022/03/24 09:02:21;;;;;;;43.97;23.83;;;;;;;;;;5015594;28;20049;-87
2022/03/24 09:04:47;;;;;;;42.40;22.70;;;;;;;;;;5033344;28;20021;-88
2022/03/24 09:07:13;;;;;;;48.33;23.30;;;;;;;;;;5018375;28;20030;-86
2022/03/24 09:09:40;;;;;;;44.10;21.98;;;;;;;;;;5018051;28;20014;-88
2022/03/24 09:12:05;;;;;;;44.25;21.90;;;;;;;;;;5019323;28;20028;-87
2022/03/24 09:14:30;;;;;;;44.60;23.08;;;;;;;;;;5021322;28;20021;-85
2022/03/24 09:16:56;;;;;;;38.67;22.38;;;;;;;;;;5022387;28;20022;-86
2022/03/24 09:19:22;;;;;;;43.00;23.92;;;;;;;;;;5021718;28;20033;-87
2022/03/24 09:21:48;;;;;;;45.72;23.25;;;;;;;;;;5019081;28;20076;-87
2022/03/24 09:24:13;;;;;;;38.75;22.70;;;;;;;;;;5021696;28;20038;-87
2022/03/24 09:26:39;;;;;;;44.08;23.63;;;;;;;;;;5024614;28;20017;-87
2022/03/24 09:29:04;;;;;;;43.65;24.13;;;;;;;;;;5024281;28;20025;-86
2022/03/24 09:31:29;;;;;;;45.60;24.23;;;;;;;;;;5020334;28;20030;-88
2022/03/24 09:33:55;;;;;;;49.58;24.33;;;;;;;;;;5023457;28;20018;-87
2022/03/24 09:36:20;;;;;;;45.58;23.92;;;;;;;;;;5022886;28;20124;-87
2022/03/24 09:38:45;;;;;;;42.92;23.08;;;;;;;;;;5022003;28;20381;-86
2022/03/24 09:41:11;;;;;;;43.53;22.70;;;;;;;;;;5022673;28;20025;-87
2022/03/24 09:43:37;;;;;;;43.13;21.85;;;;;;;;;;5021284;28;20017;-87
2022/03/24 09:46:03;;;;;;;49.28;24.20;;;;;;;;;;5022475;28;20027;-84
2022/03/24 09:48:28;;;;;;;45.67;22.40;;;;;;;;;;5030981;28;20069;-85
2022/03/24 09:50:54;;;;;;;49.67;23.35;;;;;;;;;;5031636;28;20069;-83
2022/03/24 09:53:19;;;;;;;49.80;25.25;;;;;;;;;;5030044;28;20065;-84
2022/03/24 09:55:45;;;;;;;59.47;26.05;;;;;;;;;;5032318;28;20044;-85
2022/03/24 09:58:11;;;;;;;44.35;24.25;;;;;;;;;;5036069;28;20010;-84
2022/03/24 10:00:36;;;;;;;42.40;23.38;;;;;;;;;;5034561;28;20106;-84
2022/03/24 10:03:06;;;;;;;44.03;23.25;;;;;;;;;;5031338;28;20030;-85
2022/03/24 10:05:31;;;;;;;42.22;22.48;;;;;;;;;;5027923;28;20446;-87
2022/03/24 10:08:02;;;;;;;40.28;21.90;;;;;;;;;;5025489;28;20033;-86
2022/03/24 10:10:27;;;;;;;43.03;22.67;;;;;;;;;;5024858;28;20045;-85
2022/03/24 10:12:53;;;;;;;40.65;22.52;;;;;;;;;;5021922;28;20477;-86
2022/03/24 10:15:19;;;;;;;40.90;22.20;;;;;;;;;;5023266;28;20030;-86
2022/03/24 10:17:54;;;;;;;43.83;22.83;;;;;;;;;;5020221;28;20045;-85
2022/03/24 10:20:20;;;;;;;52.53;25.88;;;;;;;;;;5024244;28;20477;-84
2022/03/24 10:23:05;;;;;;;42.53;23.35;;;;;;;;;;5024370;28;20049;-84
2022/03/24 10:25:33;;;;;;;40.88;22.35;;;;;;;;;;5040325;28;20485;-85
2022/03/24 10:28:07;;;;;;;42.50;21.88;;;;;;;;;;5023510;28;20018;-85
2022/03/24 10:30:48;;;;;;;37.67;21.90;;;;;;;;;;5026060;28;20063;-86
2022/03/24 10:33:25;;;;;;;43.45;23.30;;;;;;;;;;5021263;28;20090;-85
2022/03/24 10:35:50;;;;;;;40.28;22.13;;;;;;;;;;5011530;28;20026;-84
2022/03/24 10:38:30;;;;;;;41.20;23.88;;;;;;;;;;5025982;28;20473;-83
2022/03/24 10:40:55;;;;;;;41.45;22.58;;;;;;;;;;5025739;28;20135;-84
2022/03/24 10:43:35;;;;;;;36.50;21.58;;;;;;;;;;5027114;28;20516;-84
2022/03/24 10:46:11;;;;;;;36.10;21.38;;;;;;;;;;5025578;28;20029;-84
2022/03/24 10:48:36;;;;;;;47.50;23.73;;;;;;;;;;5027879;28;20029;-84
2022/03/24 10:51:03;;;;;;;44.65;23.98;;;;;;;;;;5043854;28;20396;-85
2022/03/24 10:53:37;;;;;;;40.10;23.83;;;;;;;;;;5025907;28;20021;-84
2022/03/24 10:56:12;;;;;;;37.30;21.75;;;;;;;;;;5040373;28;20461;-85
2022/03/24 10:58:47;;;;;;;39.40;22.55;;;;;;;;;;5023576;28;20068;-84
2022/03/24 11:01:14;;;;;;;40.20;22.65;;;;;;;;;;5023391;28;20088;-84
2022/03/24 11:03:40;;;;;;;41.03;22.02;;;;;;;;;;5018700;28;20489;-84
2022/03/24 11:06:06;;;;;;;42.05;23.98;;;;;;;;;;5032731;28;20014;-84
2022/03/24 11:08:32;;;;;;;37.38;22.40;;;;;;;;;;5022014;28;20037;-84
2022/03/24 11:10:57;;;;;;;36.72;23.25;;;;;;;;;;5034756;28;20014;-85
2022/03/24 11:13:29;;;;;;;42.22;24.85;;;;;;;;;;5036276;28;20065;-85
2022/03/24 11:15:54;;;;;;;36.63;22.80;;;;;;;;;;5037514;28;20022;-85
2022/03/24 11:18:23;;;;;;;42.15;23.77;;;;;;;;;;5023358;28;20101;-84
2022/03/24 11:20:49;;;;;;;39.97;24.08;;;;;;;;;;5024079;28;20026;-84
2022/03/24 11:23:20;;;;;;;45.85;23.45;;;;;;;;;;5024889;28;20181;-86
2022/03/24 11:25:53;;;;;;;39.70;23.52;;;;;;;;;;5024529;28;20053;-85
2022/03/24 11:28:18;;;;;;;38.25;23.48;;;;;;;;;;5027187;28;20032;-85
2022/03/24 11:30:43;;;;;;;41.38;23.17;;;;;;;;;;5029197;28;20042;-84
2022/03/24 11:33:09;;;;;;;43.88;24.80;;;;;;;;;;5028532;28;20028;-85
2022/03/24 11:35:35;;;;;;;37.03;24.35;;;;;;;;;;5027427;28;20038;-84
2022/03/24 11:38:04;;;;;;;41.03;24.52;;;;;;;;;;5028803;28;20141;-84
2022/03/24 11:40:30;;;;;;;36.30;24.05;;;;;;;;;;5026863;28;20111;-84
2022/03/24 11:43:14;;;;;;;36.22;23.25;;;;;;;;;;5030250;28;20021;-84
2022/03/24 11:45:40;;;;;;;37.40;24.55;;;;;;;;;;5025059;28;20014;-84
2022/03/24 11:48:06;;;;;;;36.40;22.17;;;;;;;;;;5029956;28;20505;-84
2022/03/24 11:50:41;;;;;;;32.75;21.63;;;;;;;;;;5016440;28;20018;-84
2022/03/24 11:53:25;;;;;;;32.83;22.30;;;;;;;;;;5012171;28;20014;-84
2022/03/24 11:55:59;;;;;;;45.47;30.40;;;;;;;;;;5013365;28;20024;-84
2022/03/24 11:58:35;;;;;;;34.72;21.38;;;;;;;;;;5010715;28;20050;-84
2022/03/24 12:01:20;;;;;;;33.08;21.55;;;;;;;;;;5008368;28;20028;-84
2022/03/24 12:03:54;;;;;;;34.67;21.42;;;;;;;;;;5012683;28;20040;-84
2022/03/24 12:06:20;;;;;;;34.33;20.63;;;;;;;;;;5012621;28;20127;-85
2022/03/24 12:08:47;;;;;;;32.85;21.27;;;;;;;;;;5014199;28;20072;-84
2022/03/24 12:11:31;;;;;;;33.53;21.50;;;;;;;;;;5011945;28;20022;-84
2022/03/24 12:13:57;;;;;;;31.88;19.48;;;;;;;;;;5010706;28;20018;-84
2022/03/24 12:16:23;;;;;;;32.40;21.08;;;;;;;;;;5011680;28;20531;-84
2022/03/24 12:18:49;;;;;;;49.30;24.63;;;;;;;;;;5012017;28;20085;-84
2022/03/24 12:21:24;;;;;;;42.63;23.17;;;;;;;;;;5025133;28;20017;-85
2022/03/24 12:24:06;;;;;;;34.60;24.00;;;;;;;;;;5013001;28;20486;-84
2022/03/24 12:26:35;;;;;;;31.90;21.38;;;;;;;;;;5012890;28;20470;-84
2022/03/24 12:29:14;;;;;;;32.10;20.83;;;;;;;;;;5011883;28;20014;-84
2022/03/24 12:31:56;;;;;;;33.10;20.95;;;;;;;;;;5008958;28;20117;-83
2022/03/24 12:34:21;;;;;;;38.20;21.30;;;;;;;;;;5010082;28;20060;-82
2022/03/24 12:36:47;;;;;;;34.30;20.92;;;;;;;;;;5016443;28;20026;-83
2022/03/24 12:39:13;;;;;;;32.28;21.17;;;;;;;;;;5011041;28;20033;-84
2022/03/24 12:41:38;;;;;;;31.17;19.42;;;;;;;;;;5012262;28;20014;-83
2022/03/24 12:44:06;;;;;;;28.20;18.48;;;;;;;;;;5020869;28;20026;-83
2022/03/24 12:46:37;;;;;;;29.17;19.63;;;;;;;;;;5010706;28;20020;-83
2022/03/24 12:49:07;;;;;;;35.47;19.85;;;;;;;;;;5008735;28;20154;-82
2022/03/24 12:51:33;;;;;;;29.40;19.80;;;;;;;;;;5013197;28;20021;-83
2022/03/24 12:53:59;;;;;;;28.50;19.40;;;;;;;;;;5012844;28;20065;-84
2022/03/24 12:56:28;;;;;;;30.63;20.35;;;;;;;;;;5021598;28;20057;-82
2022/03/24 12:58:55;;;;;;;28.17;19.08;;;;;;;;;;5012657;28;20024;-83
2022/03/24 13:01:20;;;;;;;34.92;22.35;;;;;;;;;;4996535;28;20381;-84
2022/03/24 13:03:52;;;;;;;31.80;20.07;;;;;;;;;;5009888;28;20029;-83
2022/03/24 13:06:18;;;;;;;30.42;20.05;;;;;;;;;;5012773;28;20263;-82
2022/03/24 13:09:05;;;;;;;31.52;20.55;;;;;;;;;;5013239;28;20473;-84
2022/03/24 13:11:46;;;;;;;32.60;20.00;;;;;;;;;;5000757;28;20024;-83
2022/03/24 13:14:12;;;;;;;29.35;20.33;;;;;;;;;;5012641;28;20025;-82
2022/03/24 13:16:37;;;;;;;30.60;21.43;;;;;;;;;;5017014;28;20026;-85
2022/03/24 13:19:02;;;;;;;29.93;19.93;;;;;;;;;;5012530;28;20247;-84
2022/03/24 13:21:27;;;;;;;32.33;20.03;;;;;;;;;;5009094;28;20282;-83
2022/03/24 13:23:53;;;;;;;31.50;21.60;;;;;;;;;;5012210;28;20437;-82
2022/03/24 13:26:19;;;;;;;31.08;20.52;;;;;;;;;;5012106;28;20037;-82
2022/03/24 13:28:45;;;;;;;35.00;22.30;;;;;;;;;;5011058;28;20025;-82
2022/03/24 13:31:10;;;;;;;31.55;22.98;;;;;;;;;;5011237;28;20017;-83
2022/03/24 13:33:36;;;;;;;31.77;21.10;;;;;;;;;;5026526;28;20064;-83
2022/03/24 13:36:02;;;;;;;27.42;20.13;;;;;;;;;;5013060;28;20397;-83
2022/03/24 13:38:27;;;;;;;32.50;20.88;;;;;;;;;;5011967;28;20018;-84
2022/03/24 13:40:54;;;;;;;30.70;20.98;;;;;;;;;;5011147;28;20087;-83
2022/03/24 13:43:21;;;;;;;32.78;23.05;;;;;;;;;;5010331;28;20025;-82
2022/03/24 13:45:48;;;;;;;49.08;32.05;;;;;;;;;;5023571;28;20113;-83
2022/03/24 13:48:15;;;;;;;45.65;25.83;;;;;;;;;;5011117;28;20028;-83
2022/03/24 13:50:41;;;;;;;60.10;36.25;;;;;;;;;;5011186;28;20064;-82
2022/03/24 13:53:20;;;;;;;33.15;24.80;;;;;;;;;;5007642;28;20045;-83
2022/03/24 13:55:46;;;;;;;47.22;30.42;;;;;;;;;;5004431;28;20068;-83
2022/03/24 13:58:14;;;;;;;54.67;36.53;;;;;;;;;;5015165;28;20140;-83
2022/03/24 14:00:50;;;;;;;40.75;29.40;;;;;;;;;;5016839;28;20018;-83
2022/03/24 14:03:15;;;;;;;42.40;26.85;;;;;;;;;;5019416;28;20014;-83
2022/03/24 14:05:46;;;;;;;51.08;34.00;;;;;;;;;;5018975;28;20029;-86
2022/03/24 14:08:27;;;;;;;40.10;28.08;;;;;;;;;;5017525;28;20064;-84
2022/03/24 14:10:54;;;;;;;36.40;24.98;;;;;;;;;;5009408;28;20014;-84
2022/03/24 14:13:26;;;;;;;38.45;27.52;;;;;;;;;;4994384;28;20104;-84
2022/03/24 14:16:13;;;;;;;31.38;21.58;;;;;;;;;;5005546;28;20548;-86
2022/03/24 14:18:39;;;;;;;29.17;21.48;;;;;;;;;;5009143;28;20512;-85